• Join FlightAware (Why Join?)
  • Login
  • US Flag 
12:27PM EDT


 

Airport Tracker/Info


-or-


 

Live Flight TrackerFlight Track Log ✈ N38TA ✈ 24-Jun-2014 ✈ KGTU - KCHA

Flight Track Log - Related Links

Times and Time Zones

All times are in EDT time to prevent confusion due to time zone crossing. See the N38TA flight status page for this flight to view local times or setup timezone preferences in your user account.

Time Position Orientation Groundspeed Altitude Reporting Facility
EDT Latitude Longitude Course Direction KTS MPH feet Rate Location/Type
01:44PM 30.6286 -97.5600 96° East 205 236 4,900  Level Fort Worth Center
01:45PM 30.5972 -97.5133 128° Southeast 191 220 6,300 1,440 Climbing Fort Worth Center
01:46PM 30.5664 -97.4644 126° Southeast 191 220 8,000 1,500 Climbing Fort Worth Center
01:47PM 30.5919 -97.4025 64° Northeast 180 207 9,700 1,380 Climbing Houston Center
01:48PM 30.3628 -97.4077 96° East  Level FlightAware Approximate
01:48PM 30.6133 -97.3444 67° East 189 217 11,000  Level Houston Center
01:49PM 30.3548 -97.3192 96° East  Level FlightAware Approximate
01:49PM 30.6306 -97.2844 72° East 195 224 12,400  Level Houston Center
01:50PM 30.6608 -97.2219 61° Northeast 190 219 14,000 1,200 Climbing Houston Center
01:51PM 30.6814 -97.1672 66° East 189 217 15,000 1,020 Climbing Houston Center
01:52PM 30.7047 -97.1131 63° Northeast 188 216 16,200 1,140 Climbing Houston Center
01:53PM 30.7281 -97.0611 62° Northeast 187 215 17,400 900 Climbing Houston Center
01:54PM 30.7500 -97.0094 64° Northeast 179 206 18,100 480 Climbing Houston Center
01:55PM 30.7794 -96.9364 65° Northeast 206 237 18,500 660 Climbing Houston Center
01:56PM 30.8064 -96.8761 62° Northeast 208 239 19,500 660 Climbing Houston Center
01:58PM 30.8558 -96.7556 64° Northeast 213 245 20,500 420 Climbing Fort Worth Center
01:59PM 30.8856 -96.6925 61° Northeast 220 253 20,900 180 Climbing Houston Center
02:00PM 30.9186 -96.6072 66° East 238 274 20,900  Level Houston Center
02:01PM 30.9525 -96.5325 62° Northeast 258 297 20,900  Level Houston Center
02:02PM 30.9858 -96.4556 63° Northeast 264 304 20,900  Level Houston Center
02:03PM 31.0178 -96.3769 65° Northeast 270 311 20,900  Level Houston Center
02:04PM 31.0503 -96.2972 65° Northeast 274 315 20,900  Level Houston Center
02:05PM 31.0847 -96.2172 63° Northeast 276 318 20,900  Level Houston Center
02:07PM 31.1258 -96.1175 64° Northeast 285 328 21,000  Climbing Houston Center
02:08PM 31.1572 -96.0425 64° Northeast 278 320 20,900  Descending Houston Center
02:09PM 31.1925 -95.9600 63° Northeast 286 329 21,000  Climbing Houston Center
02:10PM 31.2269 -95.8772 64° Northeast 287 330 21,000  Level Houston Center
02:11PM 31.2683 -95.7803 63° Northeast 284 327 21,000  Level Houston Center
02:12PM 31.3094 -95.7044 58° Northeast 285 328 21,000  Level Houston Center
02:13PM 31.3747 -95.6578 31° Northeast 281 323 21,000  Level Houston Center
02:14PM 31.4308 -95.6172 32° Northeast 278 320 21,000  Level Fort Worth Center
02:15PM 31.5078 -95.5553 34° Northeast 278 320 21,000  Level Fort Worth Center
02:16PM 31.5744 -95.5056 32° Northeast 280 322 21,000 -60 Level Fort Worth Center
02:17PM 31.6372 -95.4533 35° Northeast 280 322 20,900  Descending Fort Worth Center
02:18PM 31.6997 -95.4053 33° Northeast 276 318 21,100 240 Climbing Fort Worth Center
02:19PM 31.7597 -95.3536 36° Northeast 269 310 21,500 480 Climbing Fort Worth Center
02:20PM 31.8300 -95.2981 34° Northeast 260 299 22,200 540 Climbing Fort Worth Center
02:21PM 31.8836 -95.2528 36° Northeast 244 281 22,700 300 Climbing Fort Worth Center
02:22PM 31.9378 -95.2069 36° Northeast 239 275 22,900 120 Climbing Fort Worth Center
02:23PM 31.9936 -95.1589 36° Northeast 242 278 23,000  Climbing Fort Worth Center
02:24PM 32.0581 -95.1744 348° North 246 283 22,900  Descending Fort Worth Center
02:25PM 32.1208 -95.2136 332° Northwest 253 291 23,000  Climbing Fort Worth Center
02:26PM 32.1978 -95.2578 334° Northwest 255 293 23,000  Level Fort Worth Center
02:27PM 32.2642 -95.3031 330° Northwest 261 300 23,000  Level Fort Worth Center
02:28PM 32.3311 -95.3378 336° Northwest 263 303 23,000  Level Fort Worth Center
02:29PM 32.4033 -95.3603 345° North 264 304 23,000  Level Fort Worth Center
02:30PM 32.4731 -95.3872 342° North 264 304 23,000  Level Fort Worth Center
02:31PM 32.5461 -95.3900 358° North 275 316 23,000  Level Fort Worth Center
02:32PM 32.6100 -95.3158 44° Northeast 272 313 23,000  Level Fort Worth Center
02:33PM 32.6478 -95.2508 55° Northeast 274 315 23,000  Level Fort Worth Center
02:34PM 32.6872 -95.1711 60° Northeast 276 318 23,000  Level Fort Worth Center
02:35PM 32.7269 -95.0719 65° Northeast 279 321 23,000  Level Fort Worth Center
02:36PM 32.7447 -94.9797 77° East 283 326 23,000  Level Fort Worth Center
02:37PM 32.7725 -94.8928 69° East 283 326 23,000  Level Fort Worth Center
02:39PM 32.8000 -94.8061 69° East 282 325 23,000  Level Fort Worth Center
02:40PM 32.8258 -94.7172 71° East 283 326 23,000  Level Fort Worth Center
02:41PM 32.8547 -94.6089 72° East 286 329 23,000  Level Fort Worth Center
02:42PM 32.8797 -94.5194 72° East 286 329 23,000  Level Fort Worth Center
02:43PM 32.9042 -94.4314 72° East 285 328 23,000  Level Fort Worth Center
02:44PM 32.9281 -94.3408 73° East 286 329 23,000  Level Fort Worth Center
02:45PM 32.9525 -94.2519 72° East 286 329 23,000  Level Fort Worth Center
02:46PM 32.9825 -94.1450 71° East 286 329 23,000  Level Fort Worth Center
02:47PM 33.0058 -94.0564 73° East 284 327 23,100  Climbing Fort Worth Center
02:48PM 33.0294 -93.9672 72° East 284 327 23,100  Level Fort Worth Center
02:49PM 33.0531 -93.8783 72° East 284 327 23,100 -60 Level Fort Worth Center
02:50PM 33.0767 -93.7897 72° East 284 327 23,000 -60 Descending Fort Worth Center
02:51PM 33.1056 -93.6833 72° East 284 327 23,000  Level Fort Worth Center
02:52PM 33.1303 -93.5961 71° East 282 325 23,000  Level Fort Worth Center
02:53PM 33.1528 -93.5072 73° East 280 322 23,000  Level Fort Worth Center
02:54PM 33.1769 -93.4194 72° East 280 322 23,100  Climbing Fort Worth Center
02:55PM 33.1994 -93.3314 73° East 280 322 23,100  Level Fort Worth Center
02:56PM 33.2275 -93.2239 73° East 282 325 23,100  Level Fort Worth Center
02:57PM 33.2531 -93.1342 71° East 283 326 23,100  Level Fort Worth Center
02:59PM 33.3056 -92.9417 72° East 282 325 23,100  Level Memphis Center
03:00PM 33.3236 -92.8703 73° East 280 322 23,100  Level Fort Worth Center
03:01PM 33.3450 -92.7819 74° East 280 322 23,100  Level Fort Worth Center
03:02PM 33.3703 -92.6769 74° East 279 321 23,100  Level Fort Worth Center
03:03PM 33.3919 -92.5881 74° East 279 321 23,100  Level Fort Worth Center
03:04PM 33.4144 -92.5011 73° East 279 321 23,100  Level Fort Worth Center
03:05PM 33.4378 -92.4153 72° East 276 318 23,100  Level Fort Worth Center
03:07PM 33.4636 -92.3103 74° East 275 316 23,100  Level Memphis Center
03:08PM 33.4842 -92.2250 74° East 272 313 23,100  Level Memphis Center
03:09PM 33.5081 -92.1361 72° East 273 314 23,100  Level Memphis Center
03:10PM 33.5358 -92.0308 72° East 274 315 23,100  Level Memphis Center
03:11PM 33.5583 -91.9431 73° East 274 315 23,100  Level Memphis Center
03:12PM 33.5789 -91.8542 74° East 274 315 23,100  Level Memphis Center
03:13PM 33.6006 -91.7653 74° East 275 316 23,100  Level Memphis Center
03:14PM 33.6233 -91.6761 73° East 281 323 23,100  Level Memphis Center
03:15PM 33.6494 -91.5700 74° East 281 323 23,100  Level Memphis Center
03:16PM 33.6706 -91.4811 74° East 281 323 23,100  Level Memphis Center
03:17PM 33.6892 -91.3889 76° East 281 323 23,100  Level Memphis Center
03:18PM 33.7108 -91.2997 74° East 281 323 23,100  Level Memphis Center
03:19PM 33.7333 -91.2086 73° East 282 325 23,100  Level Memphis Center
03:20PM 33.7622 -91.1000 72° East 283 326 23,100  Level Memphis Center
03:21PM 33.7869 -91.0089 72° East 284 327 23,100  Level Memphis Center
03:22PM 33.8103 -90.9172 73° East 285 328 23,100  Level Memphis Center
03:23PM 33.8369 -90.8125 73° East 287 330 23,100  Level Memphis Center
03:24PM 33.8592 -90.7192 74° East 288 331 23,100  Level Memphis Center
03:25PM 33.8808 -90.6272 74° East 288 331 23,100  Level Memphis Center
03:26PM 33.9022 -90.5336 75° East 289 333 23,100  Level Memphis Center
03:27PM 33.9242 -90.4392 74° East 290 334 23,100  Level Memphis Center
03:28PM 33.9472 -90.3456 73° East 292 336 23,100  Level Memphis Center
03:29PM 33.9744 -90.2339 74° East 292 336 23,100  Level Memphis Center
03:30PM 33.9969 -90.1406 74° East 292 336 23,100  Level Memphis Center
03:31PM 34.0181 -90.0469 75° East 292 336 23,100  Level Memphis Center
03:33PM 34.0375 -89.9547 76° East 291 335 23,100  Level Memphis Center
03:34PM 34.0592 -89.8619 74° East 291 335 23,100  Level Memphis Center
03:35PM 34.0850 -89.7503 74° East 291 335 23,100  Level Memphis Center
03:36PM 34.1069 -89.6583 74° East 290 334 23,100  Level Memphis Center
03:37PM 34.1283 -89.5650 75° East 290 334 23,100  Level Memphis Center
03:38PM 34.1500 -89.4731 74° East 290 334 23,100  Level Memphis Center
03:39PM 34.1711 -89.3783 75° East 290 334 23,100  Level Memphis Center
03:40PM 34.1978 -89.2669 74° East 290 334 23,100  Level Memphis Center
03:40PM 34.2036 -89.2444 73° East 287 330 23,100  Level Memphis Center
03:41PM 34.2219 -89.1764 72° East 290 334 23,100  Level Memphis Center
03:42PM 34.2464 -89.0828 72° East 290 334 23,100  Level Memphis Center
03:43PM 34.2706 -88.9894 73° East 291 335 23,100  Level Memphis Center
03:44PM 34.2950 -88.8956 72° East 291 335 23,100  Level Memphis Center
03:45PM 34.3261 -88.7975 69° East 291 335 23,100  Level Memphis Center
03:46PM 34.3547 -88.7058 69° East 291 335 23,100  Level Memphis Center
03:47PM 34.3844 -88.6131 69° East 292 336 23,100  Level Memphis Center
03:48PM 34.4189 -88.5031 69° East 292 336 23,100  Level Memphis Center
03:49PM 34.4444 -88.4106 71° East 292 336 23,100  Level Memphis Center
03:50PM 34.4767 -88.3200 67° East 292 336 23,100  Level Memphis Center
03:51PM 34.5111 -88.2303 65° Northeast 292 336 23,100  Level Memphis Center
03:52PM 34.5472 -88.1408 64° Northeast 292 336 23,100  Level Memphis Center
03:53PM 34.5869 -88.0528 61° Northeast 293 337 23,100  Level Memphis Center
03:54PM 34.6336 -87.9467 62° Northeast 293 337 23,100  Level Memphis Center
03:55PM 34.6781 -87.8606 58° Northeast 295 339 23,100  Level Memphis Center
03:56PM 34.7203 -87.7731 60° Northeast 295 339 23,100  Level Memphis Center
03:57PM 34.7608 -87.6861 60° Northeast 295 339 23,100  Level Memphis Center
03:58PM 34.8025 -87.5994 60° Northeast 295 339 23,100  Level Memphis Center
03:59PM 34.8433 -87.5128 60° Northeast 295 339 23,100  Level Memphis Center
04:00PM 34.8833 -87.4253 61° Northeast 295 339 23,100  Level Memphis Center
04:01PM 34.9331 -87.3214 60° Northeast 295 339 23,100  Level Memphis Center
04:03PM 34.9733 -87.2350 60° Northeast 295 339 23,100  Level Memphis Center
04:04PM 35.0128 -87.1489 61° Northeast 295 339 23,100  Level Memphis Center
04:05PM 35.0544 -87.0633 59° Northeast 295 339 23,100  Level Memphis Center
04:06PM 35.1008 -86.9803 56° Northeast 295 339 23,100  Level Memphis Center
04:07PM 35.1481 -86.9008 54° Northeast 294 338 23,100  Level Memphis Center
04:08PM 35.1981 -86.8133 55° Northeast 293 337 23,100  Level Memphis Center
04:09PM 35.2444 -86.7322 55° Northeast 292 336 23,100  Level Memphis Center
04:10PM 35.2875 -86.6297 63° Northeast 291 335 23,100  Level Memphis Center
04:11PM 35.3008 -86.5331 80° East 289 333 23,100  Level Memphis Center
04:12PM 35.2906 -86.4383 98° East 286 329 23,100 -600 Level Memphis Center
04:13PM 35.2850 -86.3383 94° East 286 329 21,900 -1,560 Descending Memphis Center
04:14PM 35.2831 -86.2339 91° East 299 344 19,900 -2,100 Descending Memphis Center
04:15PM 35.2825 -86.1264 90° East 309 356 17,600 -2,400 Descending Memphis Center
04:17PM 35.2864 -85.9089 89° East 297 342 12,500 -2,280 Descending Memphis Center
04:18PM 35.2942 -85.8153 84° East 283 326 10,500 -2,040 Descending Memphis Center
04:19PM 35.3036 -85.7261 83° East 271 312 8,400 -1,680 Descending Memphis Center
04:20PM 35.3103 -85.6383 85° East 265 305 7,100 -720 Descending Memphis Center
04:21PM 35.3194 -85.5650 81° East 232 267 7,000 -60 Descending Memphis Center
04:22PM 35.3275 -85.4914 82° East 221 254 7,000 -540 Level Memphis Center
04:23PM 35.3169 -85.3994 98° East 224 258 6,000 -780 Descending Memphis Center
04:24PM 35.3100 -85.3286 97° East 216 249 5,400 -900 Descending Memphis Center
04:25PM 35.3053 -85.2622 95° East 202 232 4,200 -780 Descending Memphis Center
04:26PM 35.2983 -85.1925 97° East 202 232 3,800 -300 Descending Memphis Center
04:27PM 35.2714 -85.1489 127° Southeast 177 204 3,600 -120 Descending Memphis Center
04:28PM 35.2286 -85.1283 159° South 152 175 3,600  Level Memphis Center
04:29PM 35.1947 -85.1419 198° South 137 158 3,600  Level Memphis Center